Time;durP1;ratioP1;P1;durP2;ratioP2;P2;SDS_P1;SDS_P2;PMS_P1;PMS_P2;Temp;Humidity;BMP_temperature;BMP_pressure;BME280_temperature;BME280_humidity;BME280_pressure;Samples;Min_cycle;Max_cycle;Signal;HPM_P1;HPM_P2
2023/06/07 00:00:39;;;;;;;11.52;3.78;;;;;;;;;;4993266;28;20184;-69
2023/06/07 00:03:09;;;;;;;13.65;4.20;;;;;;;;;;5006467;28;20041;-69
2023/06/07 00:05:36;;;;;;;14.98;3.33;;;;;;;;;;4965446;28;20046;-68
2023/06/07 00:08:02;;;;;;;19.38;4.28;;;13.00;99.90;;;;;;5012703;28;20042;-68
2023/06/07 00:10:30;;;;;;;16.52;4.22;;;;;;;;;;4994877;28;20069;-67
2023/06/07 00:12:56;;;;;;;10.88;3.42;;;;;;;;;;5011392;28;20048;-67
2023/06/07 00:15:22;;;;;;;13.85;3.58;;;;;;;;;;4995151;28;20069;-67
2023/06/07 00:17:48;;;;;;;12.90;3.88;;;;;;;;;;4995059;28;20041;-67
2023/06/07 00:20:14;;;;;;;13.60;3.90;;;;;;;;;;4992798;28;20393;-67
2023/06/07 00:22:40;;;;;;;15.70;4.00;;;11.40;99.90;;;;;;4996346;28;20042;-67
2023/06/07 00:25:07;;;;;;;12.40;3.50;;;11.20;99.90;;;;;;4990310;28;20073;-67
2023/06/07 00:27:33;;;;;;;17.75;4.13;;;;;;;;;;4964449;28;20077;-67
2023/06/07 00:29:59;;;;;;;12.35;3.35;;;;;;;;;;4990935;28;20042;-67
2023/06/07 00:32:25;;;;;;;16.40;4.28;;;;;;;;;;4993496;28;20053;-67
2023/06/07 00:34:51;;;;;;;10.75;3.47;;;;;;;;;;4976480;28;20080;-67
2023/06/07 00:37:17;;;;;;;17.48;3.92;;;;;;;;;;4976498;28;20477;-68
2023/06/07 00:39:43;;;;;;;16.00;4.13;;;;;;;;;;5001284;28;20453;-67
2023/06/07 00:42:10;;;;;;;14.57;3.90;;;;;;;;;;4995075;28;20086;-67
2023/06/07 00:44:37;;;;;;;13.10;4.20;;;;;;;;;;4992480;28;20173;-67
2023/06/07 00:47:03;;;;;;;14.52;4.15;;;;;;;;;;4962808;28;20208;-67
2023/06/07 00:49:30;;;;;;;16.08;3.75;;;;;;;;;;4958883;28;20520;-67
2023/06/07 00:51:56;;;;;;;18.10;3.97;;;;;;;;;;4957475;28;20046;-67
2023/06/07 00:54:22;;;;;;;12.63;3.47;;;;;;;;;;4962061;28;20046;-67
2023/06/07 00:56:50;;;;;;;9.73;3.30;;;;;;;;;;4957497;28;20050;-67
2023/06/07 00:59:20;;;;;;;17.08;4.35;;;;;;;;;;4963458;28;20138;-67
2023/06/07 01:01:51;;;;;;;13.27;4.57;;;12.20;99.90;;;;;;4957233;28;20053;-67
2023/06/07 01:04:19;;;;;;;10.38;3.33;;;;;;;;;;4988673;28;20035;-67
2023/06/07 01:06:45;;;;;;;16.80;3.70;;;;;;;;;;4960648;28;20096;-67
2023/06/07 01:09:13;;;;;;;12.35;3.65;;;;;;;;;;4952798;28;20042;-67
2023/06/07 01:11:46;;;;;;;15.02;3.80;;;12.30;99.90;;;;;;4957128;28;20077;-67
2023/06/07 01:14:12;;;;;;;10.30;3.40;;;;;;;;;;4967169;28;20046;-67
2023/06/07 01:16:40;;;;;;;14.85;3.63;;;12.20;99.90;;;;;;4963101;28;20053;-67
2023/06/07 01:19:06;;;;;;;11.38;3.88;;;;;;;;;;4956186;28;20506;-67
2023/06/07 01:21:36;;;;;;;14.75;4.07;;;12.20;99.90;;;;;;4974444;28;20030;-67
2023/06/07 01:24:03;;;;;;;10.18;3.45;;;;;;;;;;4974288;28;20220;-67
2023/06/07 01:26:29;;;;;;;12.95;3.70;;;;;;;;;;4973321;28;20038;-67
2023/06/07 01:29:05;;;;;;;11.95;3.38;;;12.00;99.90;;;;;;4974046;28;20054;-67
2023/06/07 01:31:31;;;;;;;19.25;4.55;;;;;;;;;;4973347;28;20077;-67
2023/06/07 01:33:58;;;;;;;16.23;4.60;;;;;;;;;;4944923;28;20051;-67
2023/06/07 01:36:25;;;;;;;9.82;3.33;;;12.30;99.90;;;;;;4956934;28;20122;-67
2023/06/07 01:38:52;;;;;;;12.32;3.83;;;;;;;;;;4967406;28;20043;-67
2023/06/07 01:41:19;;;;;;;15.38;4.25;;;;;;;;;;4970536;28;20038;-68
2023/06/07 01:43:48;;;;;;;18.42;4.00;;;;;;;;;;4956462;28;20063;-67
2023/06/07 01:46:15;;;;;;;10.50;3.55;;;12.30;99.90;;;;;;4956843;28;20042;-67
2023/06/07 01:48:41;;;;;;;12.85;3.95;;;;;;;;;;4966828;28;20138;-67
2023/06/07 01:51:07;;;;;;;15.95;3.65;;;;;;;;;;4971345;28;20066;-67
2023/06/07 01:53:34;;;;;;;13.07;4.00;;;12.10;99.90;;;;;;4951416;28;20042;-67
2023/06/07 01:56:24;;;;;;;16.52;3.60;;;12.10;99.90;;;;;;4974123;28;20034;-67
2023/06/07 01:58:57;;;;;;;10.45;3.20;;;;;;;;;;4956571;28;20050;-67
2023/06/07 02:01:33;;;;;;;10.55;3.47;;;;;;;;;;4956738;28;20051;-67
2023/06/07 02:04:02;;;;;;;16.33;3.58;;;12.00;99.90;;;;;;4973960;28;20077;-67
2023/06/07 02:06:32;;;;;;;19.90;5.15;;;12.10;99.90;;;;;;4956670;28;20501;-67
2023/06/07 02:09:03;;;;;;;13.32;3.28;;;12.20;99.90;;;;;;4958753;28;20043;-67
2023/06/07 02:11:31;;;;;;;14.15;3.65;;;12.00;99.90;;;;;;4940744;28;20105;-67
2023/06/07 02:13:58;;;;;;;12.20;3.40;;;;;;;;;;4991175;28;20105;-67
2023/06/07 02:16:37;;;;;;;15.75;3.58;;;12.00;99.90;;;;;;4974053;28;20133;-67
2023/06/07 02:19:06;;;;;;;12.57;3.90;;;;;;;;;;4973930;28;20474;-67
2023/06/07 02:21:36;;;;;;;9.93;3.30;;;12.00;99.90;;;;;;4940564;28;20041;-67
2023/06/07 02:24:06;;;;;;;14.90;3.78;;;12.20;99.90;;;;;;4976541;28;20043;-67
2023/06/07 02:26:33;;;;;;;14.10;4.25;;;;;;;;;;4960231;28;20074;-67
2023/06/07 02:28:59;;;;;;;13.82;3.30;;;;;;;;;;4960329;28;20112;-67
2023/06/07 02:31:25;;;;;;;11.82;3.40;;;;;;;;;;4960129;28;20035;-67
2023/06/07 02:33:52;;;;;;;19.85;4.38;;;;;;;;;;4965180;28;20046;-67
2023/06/07 02:36:21;;;;;;;12.02;4.63;;;12.40;99.90;;;;;;4964317;28;20034;-67
2023/06/07 02:38:47;;;;;;;11.38;3.55;;;;;;;;;;4959705;28;20503;-67
2023/06/07 02:41:13;;;;;;;13.05;3.60;;;;;;;;;;4959761;28;20121;-67
2023/06/07 02:43:39;;;;;;;14.57;3.90;;;;;;;;;;4967216;28;20050;-67
2023/06/07 02:46:06;;;;;;;14.85;3.67;;;;;;;;;;4977206;28;20034;-67
2023/06/07 02:48:32;;;;;;;12.82;3.80;;;12.00;99.90;;;;;;4964249;28;20114;-67
2023/06/07 02:50:58;;;;;;;12.27;3.60;;;;;;;;;;4977111;28;20118;-67
2023/06/07 02:53:24;;;;;;;12.48;3.75;;;;;;;;;;4960431;28;20537;-69
2023/06/07 02:55:50;;;;;;;15.07;3.08;;;10.80;99.90;;;;;;4961668;28;20047;-67
2023/06/07 02:58:16;;;;;;;16.67;3.38;;;;;;;;;;4973146;28;20042;-67
2023/06/07 03:00:49;;;;;;;13.52;3.30;;;;;;;;;;4960605;28;20471;-67
2023/06/07 03:03:16;;;;;;;12.55;3.80;;;;;;;;;;4959397;28;20057;-67
2023/06/07 03:05:44;;;;;;;12.85;3.63;;;;;;;;;;4972983;28;20042;-67
2023/06/07 03:08:10;;;;;;;8.18;3.10;;;;;;;;;;4976025;28;20506;-67
2023/06/07 03:10:36;;;;;;;9.40;2.92;;;11.00;99.90;;;;;;4959298;28;20039;-67
2023/06/07 03:13:03;;;;;;;15.18;3.83;;;;;;;;;;4943092;28;20057;-67
2023/06/07 03:15:30;;;;;;;14.73;3.70;;;;;;;;;;4976586;28;20045;-67
2023/06/07 03:17:56;;;;;;;14.40;3.38;;;;;;;;;;4971370;28;20465;-67
2023/06/07 03:20:22;;;;;;;14.40;3.47;;;;;;;;;;4960851;28;20114;-67
2023/06/07 03:22:48;;;;;;;12.23;3.88;;;;;;;;;;4976650;28;20074;-67
2023/06/07 03:25:14;;;;;;;12.98;3.40;;;;;;;;;;4959728;28;20046;-67
2023/06/07 03:27:41;;;;;;;13.38;3.38;;;;;;;;;;4964321;28;20053;-67
2023/06/07 03:30:07;;;;;;;15.88;4.25;;;;;;;;;;4976354;28;20046;-67
2023/06/07 03:32:33;;;;;;;19.75;4.57;;;;;;;;;;4976447;28;20042;-67
2023/06/07 03:35:00;;;;;;;13.77;3.65;;;;;;;;;;4975137;28;20046;-67
2023/06/07 03:37:26;;;;;;;15.27;4.05;;;;;;;;;;4948746;28;20043;-67
2023/06/07 03:39:52;;;;;;;16.70;3.78;;;;;;;;;;4962445;28;20181;-67
2023/06/07 03:42:18;;;;;;;10.80;3.97;;;;;;;;;;4976155;28;20042;-67
2023/06/07 03:44:44;;;;;;;11.18;4.10;;;;;;;;;;4968361;28;20058;-67
2023/06/07 03:47:10;;;;;;;9.98;3.22;;;;;;;;;;4989524;28;20104;-67
2023/06/07 03:49:36;;;;;;;14.60;3.72;;;;;;;;;;4958679;28;20042;-67
2023/06/07 03:52:02;;;;;;;12.88;3.53;;;;;;;;;;4942648;28;20122;-68
2023/06/07 03:54:28;;;;;;;12.07;3.60;;;;;;;;;;4969073;28;20046;-67
2023/06/07 03:56:56;;;;;;;13.20;3.30;;;;;;;;;;4952172;28;20048;-67
2023/06/07 03:59:24;;;;;;;13.23;3.33;;;;;;;;;;4976166;28;20061;-67
2023/06/07 04:01:50;;;;;;;11.05;3.35;;;;;;;;;;4976255;28;20387;-67
2023/06/07 04:04:16;;;;;;;10.52;3.78;;;;;;;;;;4963858;28;20042;-68
2023/06/07 04:06:43;;;;;;;12.88;3.92;;;;;;;;;;4966386;28;20038;-68
2023/06/07 04:09:09;;;;;;;8.80;3.20;;;;;;;;;;4958475;28;20043;-68
2023/06/07 04:11:35;;;;;;;10.23;3.08;;;;;;;;;;4972648;28;20038;-68
2023/06/07 04:14:01;;;;;;;13.00;3.90;;;;;;;;;;4975576;28;20126;-69
2023/06/07 04:16:27;;;;;;;12.27;3.55;;;;;;;;;;4959405;28;20474;-74
2023/06/07 04:18:53;;;;;;;12.50;3.65;;;;;;;;;;4974198;28;20434;-68
2023/06/07 04:21:19;;;;;;;14.35;3.40;;;;;;;;;;4968900;28;20435;-68
2023/06/07 04:23:45;;;;;;;16.92;3.85;;;;;;;;;;4975434;28;20034;-67
2023/06/07 04:26:11;;;;;;;16.65;3.00;;;;;;;;;;4958743;28;20429;-67
2023/06/07 04:28:41;;;;;;;10.50;3.40;;;;;;;;;;4956601;28;20437;-68
2023/06/07 04:31:08;;;;;;;13.07;4.18;;;;;;;;;;4968615;28;20051;-67
2023/06/07 04:33:35;;;;;;;11.13;3.72;;;;;;;;;;4963623;28;20034;-68
2023/06/07 04:36:02;;;;;;;14.88;4.10;;;;;;;;;;4947876;28;20054;-67
2023/06/07 04:38:29;;;;;;;15.45;4.00;;;;;;;;;;4958148;28;20102;-68
2023/06/07 04:40:56;;;;;;;9.10;3.60;;;;;;;;;;4966926;28;20057;-68
2023/06/07 04:43:23;;;;;;;14.63;3.58;;;;;;;;;;4960023;28;20051;-68
2023/06/07 04:45:55;;;;;;;10.48;3.20;;;;;;;;;;4957063;28;20043;-68
2023/06/07 04:48:28;;;;;;;12.55;2.95;;;;;;;;;;4957094;28;20050;-68
2023/06/07 04:51:03;;;;;;;12.98;3.08;;;;;;;;;;4956831;28;20170;-68
2023/06/07 04:53:36;;;;;;;9.50;3.10;;;12.20;99.90;;;;;;4941513;28;20047;-68
2023/06/07 04:56:03;;;;;;;11.20;3.03;;;12.00;99.90;;;;;;4940975;28;20047;-68
2023/06/07 04:58:31;;;;;;;9.52;3.28;;;;;;;;;;4980679;28;20042;-68
2023/06/07 05:00:57;;;;;;;15.05;3.35;;;;;;;;;;4976507;28;20078;-68
2023/06/07 05:03:24;;;;;;;11.77;3.40;;;;;;;;;;4976400;28;20045;-68
2023/06/07 05:05:51;;;;;;;15.23;3.38;;;;;;;;;;4976802;28;20046;-68
2023/06/07 05:08:17;;;;;;;12.48;3.33;;;;;;;;;;4977051;28;20054;-68
2023/06/07 05:10:43;;;;;;;8.80;3.10;;;;;;;;;;4976490;28;20108;-68
2023/06/07 05:13:09;;;;;;;14.07;3.55;;;;;;;;;;4969172;28;20050;-68
2023/06/07 05:15:36;;;;;;;13.75;3.67;;;;;;;;;;4966697;28;20043;-68
2023/06/07 05:18:02;;;;;;;11.07;3.17;;;;;;;;;;4961156;28;20038;-68
2023/06/07 05:20:29;;;;;;;11.98;2.83;;;;;;;;;;4942081;28;20035;-68
2023/06/07 05:22:56;;;;;;;13.80;3.38;;;;;;;;;;4965381;28;20070;-68
2023/06/07 05:25:22;;;;;;;13.38;3.75;;;;;;;;;;4964704;28;20082;-68
2023/06/07 05:27:49;;;;;;;16.85;4.28;;;;;;;;;;4969339;28;20052;-68
2023/06/07 05:30:16;;;;;;;10.82;3.00;;;;;;;;;;4948394;28;20085;-68
2023/06/07 05:32:42;;;;;;;8.95;3.45;;;;;;;;;;4960518;28;20133;-68
2023/06/07 05:35:08;;;;;;;14.90;3.33;;;13.30;99.90;;;;;;4966954;28;20042;-68
2023/06/07 05:37:35;;;;;;;11.90;3.35;;;;;;;;;;4990396;28;20035;-68
2023/06/07 05:40:04;;;;;;;14.00;3.10;;;;;;;;;;4964854;28;20494;-68
2023/06/07 05:42:30;;;;;;;17.45;3.63;;;;;;;;;;4976088;28;20383;-68
2023/06/07 05:44:56;;;;;;;11.00;3.63;;;;;;;;;;4964557;28;20051;-68
2023/06/07 05:47:25;;;;;;;9.82;3.25;;;;;;;;;;4958397;28;20505;-68
2023/06/07 05:49:52;;;;;;;10.73;3.10;;;12.60;99.90;;;;;;4949178;28;20356;-68
2023/06/07 05:52:18;;;;;;;8.93;2.88;;;;;;;;;;4958421;28;20114;-68
2023/06/07 05:54:54;;;;;;;16.38;3.10;;;12.70;99.90;;;;;;4959970;28;20394;-68
2023/06/07 05:57:20;;;;;;;13.55;3.35;;;;;;;;;;4972527;28;20078;-68
2023/06/07 05:59:46;;;;;;;15.23;3.40;;;;;;;;;;4971370;28;20046;-68
2023/06/07 06:02:15;;;;;;;10.70;2.95;;;;;;;;;;4966469;28;20045;-68
2023/06/07 06:04:41;;;;;;;11.88;2.97;;;;;;;;;;4960167;28;20363;-68
2023/06/07 06:07:08;;;;;;;8.32;3.40;;;;;;;;;;4967786;28;20042;-77
2023/06/07 06:09:35;;;;;;;15.07;3.78;;;;;;;;;;4975775;28;20057;-68
2023/06/07 06:12:01;;;;;;;11.60;3.72;;;;;;;;;;4979162;28;20889;-68
2023/06/07 06:14:27;;;;;;;10.90;2.80;;;12.60;99.90;;;;;;4987536;28;20081;-68
2023/06/07 06:16:53;;;;;;;17.02;4.00;;;11.80;99.90;;;;;;4996003;28;20050;-68
2023/06/07 06:19:19;;;;;;;12.68;3.20;;;13.70;99.90;;;;;;4985398;28;20034;-68
2023/06/07 06:21:45;;;;;;;9.95;2.90;;;;;;;;;;4970302;28;20431;-68
2023/06/07 06:24:11;;;;;;;10.77;3.78;;;;;;;;;;4960384;28;20430;-69
2023/06/07 06:26:37;;;;;;;11.77;3.20;;;;;;;;;;4945916;28;20049;-67
2023/06/07 06:29:03;;;;;;;12.10;3.63;;;;;;;;;;4967480;28;20049;-67
2023/06/07 06:31:29;;;;;;;15.38;3.90;;;;;;;;;;4970224;28;20042;-68
2023/06/07 06:33:55;;;;;;;18.90;3.90;;;;;;;;;;4967412;28;20041;-67
2023/06/07 06:36:21;;;;;;;16.05;3.30;;;;;;;;;;4986647;28;20042;-67
2023/06/07 06:38:48;;;;;;;13.60;3.33;;;;;;;;;;4967845;28;20121;-68
2023/06/07 06:41:14;;;;;;;12.32;3.17;;;;;;;;;;4988113;28;20038;-68
2023/06/07 06:43:40;;;;;;;13.25;3.72;;;;;;;;;;4968305;28;20038;-68
2023/06/07 06:46:06;;;;;;;12.50;3.80;;;;;;;;;;4970007;28;20181;-68
2023/06/07 06:48:32;;;;;;;14.93;4.03;;;;;;;;;;4969139;28;20471;-67
2023/06/07 06:50:58;;;;;;;15.40;4.18;;;;;;;;;;4968775;28;20070;-67
2023/06/07 06:53:24;;;;;;;14.88;4.32;;;;;;;;;;4968435;28;20125;-67
2023/06/07 06:55:50;;;;;;;15.70;4.55;;;14.00;99.90;;;;;;4954801;28;20402;-67
2023/06/07 06:58:16;;;;;;;11.65;3.88;;;;;;;;;;4967074;28;20057;-68
2023/06/07 07:00:42;;;;;;;11.48;3.30;;;13.40;99.90;;;;;;4966667;28;20030;-68
2023/06/07 07:03:08;;;;;;;10.65;3.88;;;;;;;;;;4961067;28;20054;-69
2023/06/07 07:05:34;;;;;;;14.82;3.60;;;;;;;;;;4962824;28;20042;-68
2023/06/07 07:08:02;;;;;;;12.40;3.60;;;;;;;;;;4962720;28;20042;-68
2023/06/07 07:10:28;;;;;;;10.13;3.28;;;;;;;;;;4951707;28;20078;-69
2023/06/07 07:12:54;;;;;;;9.05;3.70;;;;;;;;;;4966478;28;20038;-68
2023/06/07 07:15:20;;;;;;;15.75;4.32;;;;;;;;;;4955894;28;20049;-68
2023/06/07 07:17:50;;;;;;;16.83;4.10;;;13.50;99.90;;;;;;4952973;28;20410;-68
2023/06/07 07:20:16;;;;;;;12.07;3.38;;;;;;;;;;4959046;28;20034;-68
2023/06/07 07:22:46;;;;;;;9.60;3.60;;;;;;;;;;4949994;28;20042;-69
2023/06/07 07:25:13;;;;;;;14.98;4.03;;;13.50;99.90;;;;;;4964889;28;20035;-69
2023/06/07 07:27:39;;;;;;;11.40;3.97;;;;;;;;;;4976378;28;20046;-69
2023/06/07 07:30:06;;;;;;;14.10;3.80;;;14.00;99.90;;;;;;4971316;28;20108;-69
2023/06/07 07:32:35;;;;;;;11.05;3.60;;;12.90;99.90;;;;;;4972826;28;20042;-69
2023/06/07 07:35:01;;;;;;;15.30;4.20;;;;;;;;;;4947908;28;20042;-69
2023/06/07 07:37:28;;;;;;;13.50;4.05;;;;;;;;;;4970810;28;20046;-69
2023/06/07 07:39:54;;;;;;;14.73;3.60;;;;;;;;;;4959033;28;20483;-69
2023/06/07 07:42:21;;;;;;;12.93;3.83;;;;;;;;;;4969018;28;20046;-69
2023/06/07 07:44:47;;;;;;;14.82;3.90;;;;;;;;;;4965799;28;20054;-69
2023/06/07 07:47:13;;;;;;;10.77;3.30;;;;;;;;;;4975564;28;20079;-69
2023/06/07 07:49:39;;;;;;;15.85;4.70;;;;;;;;;;4967794;28;20045;-69
2023/06/07 07:52:05;;;;;;;13.40;3.85;;;;;;;;;;4990050;28;20047;-79
2023/06/07 07:54:31;;;;;;;13.80;3.97;;;;;;;;;;4965967;28;20043;-77
2023/06/07 07:56:57;;;;;;;10.43;3.83;;;;;;;;;;4958569;28;20049;-77
2023/06/07 07:59:24;;;;;;;16.27;4.13;;;;;;;;;;4944182;28;20086;-69
2023/06/07 08:01:51;;;;;;;10.07;4.22;;;;;;;;;;4960636;28;20098;-69
2023/06/07 08:04:17;;;;;;;17.27;4.90;;;;;;;;;;4969059;28;20046;-69
2023/06/07 08:06:45;;;;;;;10.38;4.90;;;;;;;;;;4974371;28;20034;-69
2023/06/07 08:09:11;;;;;;;15.05;4.60;;;;;;;;;;4964168;28;20046;-69
2023/06/07 08:11:37;;;;;;;11.88;4.47;;;;;;;;;;4958398;28;20553;-70
2023/06/07 08:14:03;;;;;;;17.67;4.80;;;;;;;;;;4953246;28;20042;-69
2023/06/07 08:16:30;;;;;;;15.85;5.28;;;;;;;;;;4985449;28;20039;-69
2023/06/07 08:18:57;;;;;;;18.70;4.88;;;14.20;99.90;;;;;;4945413;28;20034;-69
2023/06/07 08:21:23;;;;;;;16.20;5.07;;;;;;;;;;4953351;28;20053;-69
2023/06/07 08:23:49;;;;;;;11.55;4.40;;;;;;;;;;4975761;28;20505;-69
2023/06/07 08:26:15;;;;;;;12.27;3.95;;;;;;;;;;4969007;28;20043;-70
2023/06/07 08:28:42;;;;;;;42.67;4.88;;;14.30;99.90;;;;;;4942110;28;20042;-70
2023/06/07 08:31:10;;;;;;;11.85;4.18;;;;;;;;;;4968071;28;20168;-72
2023/06/07 08:33:36;;;;;;;11.02;4.15;;;;;;;;;;4960949;28;20053;-70
2023/06/07 08:36:02;;;;;;;17.08;4.30;;;;;;;;;;4968468;28;20046;-69
2023/06/07 08:38:28;;;;;;;18.48;4.68;;;;;;;;;;4962745;28;20497;-69
2023/06/07 08:40:55;;;;;;;14.75;5.00;;;;;;;;;;4957896;28;20039;-69
2023/06/07 08:43:21;;;;;;;13.73;4.18;;;;;;;;;;4940790;28;20110;-68
2023/06/07 08:45:51;;;;;;;11.80;4.47;;;14.60;99.90;;;;;;4946447;28;20046;-69
2023/06/07 08:48:17;;;;;;;13.85;4.90;;;;;;;;;;4960876;28;20050;-69
2023/06/07 08:50:46;;;;;;;14.45;5.18;;;14.60;99.90;;;;;;4976898;28;20042;-69
2023/06/07 08:53:18;;;;;;;12.63;4.93;;;14.80;99.90;;;;;;4977035;28;20054;-69
2023/06/07 08:55:44;;;;;;;;;;;14.70;99.90;;;;;;4945508;28;20108;-69
2023/06/07 08:58:11;;;;;;;14.82;4.57;;;14.70;99.90;;;;;;4976692;28;19922;-70
2023/06/07 09:00:37;;;;;;;13.60;4.97;;;;;;;;;;4960732;28;20069;-70
2023/06/07 09:03:05;;;;;;;12.57;4.93;;;;;;;;;;4976924;28;20038;-69
2023/06/07 09:05:31;;;;;;;12.65;4.28;;;15.70;99.90;;;;;;4994001;28;20359;-69
2023/06/07 09:07:57;;;;;;;11.70;4.85;;;15.70;99.90;;;;;;4976678;28;20091;-70
2023/06/07 09:10:23;;;;;;;12.23;4.53;;;;;;;;;;4976515;28;20100;-70
2023/06/07 09:12:49;;;;;;;12.27;4.47;;;;;;;;;;4974509;28;20050;-69
2023/06/07 09:15:19;;;;;;;12.13;4.38;;;;;;;;;;4973365;28;20035;-70
2023/06/07 09:17:54;;;;;;;15.82;4.80;;;16.00;99.90;;;;;;4969954;28;20092;-69
2023/06/07 09:20:21;;;;;;;13.77;5.57;;;16.20;99.90;;;;;;4976313;28;20042;-70
2023/06/07 09:23:19;;;;;;;16.25;4.70;;;16.20;99.90;;;;;;4976485;28;20516;-70
2023/06/07 09:25:46;;;;;;;13.93;4.20;;;;;;;;;;4976365;28;20088;-70
2023/06/07 09:28:13;;;;;;;11.75;4.07;;;15.70;99.90;;;;;;4976439;28;20455;-70
2023/06/07 09:30:54;;;;;;;16.05;4.68;;;15.60;99.90;;;;;;4976116;28;20054;-70
2023/06/07 09:33:36;;;;;;;11.68;4.70;;;16.20;99.90;;;;;;4976203;28;20121;-70
2023/06/07 09:36:11;;;;;;;16.27;4.17;;;15.70;99.90;;;;;;4976648;28;20454;-70
2023/06/07 09:38:37;;;;;;;10.60;3.70;;;;;;;;;;4959999;28;20117;-70
2023/06/07 09:41:05;;;;;;;10.95;4.10;;;16.00;99.90;;;;;;4976107;28;20038;-70
2023/06/07 09:43:50;;;;;;;12.75;4.45;;;16.10;99.90;;;;;;4974304;28;20104;-70
2023/06/07 09:46:17;;;;;;;19.65;5.60;;;;;;;;;;4975846;28;20046;-70
2023/06/07 09:48:50;;;;;;;10.30;4.03;;;17.10;99.90;;;;;;4976138;28;20089;-70
2023/06/07 09:51:18;;;;;;;13.30;3.83;;;17.10;99.90;;;;;;4976000;28;20521;-70
2023/06/07 09:53:54;;;;;;;15.70;4.57;;;17.30;99.90;;;;;;4976416;28;20061;-70
2023/06/07 09:56:21;;;;;;;16.20;4.32;;;16.60;99.90;;;;;;4976167;28;20042;-70
2023/06/07 09:58:49;;;;;;;12.05;3.83;;;16.70;99.90;;;;;;4960159;28;20054;-69
2023/06/07 10:01:42;;;;;;;14.45;4.55;;;16.80;99.90;;;;;;4976017;28;20096;-69
2023/06/07 10:04:11;;;;;;;12.13;4.45;;;17.00;99.90;;;;;;4970502;28;20042;-69
2023/06/07 10:06:45;;;;;;;11.23;4.43;;;17.10;99.90;;;;;;4968229;28;20045;-71
2023/06/07 10:09:11;;;;;;;12.57;4.25;;;16.90;99.90;;;;;;4991997;28;20034;-71
2023/06/07 10:11:41;;;;;;;10.05;4.05;;;17.00;99.90;;;;;;4975862;28;20093;-71
2023/06/07 10:14:10;;;;;;;11.68;4.20;;;17.20;99.90;;;;;;4971410;28;20494;-71
2023/06/07 10:16:39;;;;;;;11.70;4.10;;;17.30;99.90;;;;;;4958995;28;20479;-71
2023/06/07 10:19:42;;;;;;;12.00;4.68;;;17.50;99.90;;;;;;4959808;28;20402;-71
2023/06/07 10:22:19;;;;;;;15.93;4.80;;;17.60;99.90;;;;;;4939131;28;20055;-71
2023/06/07 10:25:12;;;;;;;17.00;4.70;;;17.40;99.90;;;;;;4981434;28;20110;-71
2023/06/07 10:28:16;;;;;;;11.48;5.45;;;17.20;99.90;;;;;;4962277;28;20118;-71
2023/06/07 10:30:51;;;;;;;16.92;4.97;;;17.40;99.90;;;;;;4935185;28;20054;-71
2023/06/07 10:33:17;;;;;;;16.25;4.38;;;17.20;99.90;;;;;;4969329;28;20051;-71
2023/06/07 10:35:45;;;;;;;14.55;4.35;;;17.20;99.90;;;;;;4987939;28;20486;-71
2023/06/07 10:38:12;;;;;;;14.50;4.45;;;16.70;99.90;;;;;;4989616;28;20403;-71
2023/06/07 10:40:38;;;;;;;9.93;4.15;;;;;;;;;;4959122;28;20050;-71
2023/06/07 10:43:05;;;;;;;12.13;4.28;;;;;;;;;;4961450;28;20039;-71
2023/06/07 10:45:31;;;;;;;15.00;4.75;;;;;;;;;;4962141;28;20055;-71
2023/06/07 10:47:57;;;;;;;14.65;4.05;;;;;;;;;;4967118;28;20051;-71
2023/06/07 10:50:26;;;;;;;12.63;5.25;;;18.60;99.90;;;;;;4968547;28;20352;-72
2023/06/07 10:52:55;;;;;;;10.55;4.55;;;18.20;99.90;;;;;;4972310;28;20049;-72
2023/06/07 10:55:32;;;;;;;12.55;4.35;;;18.00;99.90;;;;;;4967374;28;20177;-72
2023/06/07 10:57:59;;;;;;;11.57;4.50;;;18.80;99.90;;;;;;4962899;28;20043;-72
2023/06/07 11:00:33;;;;;;;14.00;5.15;;;17.20;99.90;;;;;;4961439;28;20068;-71
2023/06/07 11:03:05;;;;;;;12.88;4.75;;;18.50;99.90;;;;;;4950491;28;20549;-71
2023/06/07 11:05:55;;;;;;;14.43;4.70;;;18.80;99.90;;;;;;4982577;28;20064;-71
2023/06/07 11:08:29;;;;;;;12.23;4.22;;;18.60;99.90;;;;;;4960479;28;20043;-71
2023/06/07 11:11:01;;;;;;;11.15;4.97;;;;;;;;;;4962890;28;20035;-72
2023/06/07 11:13:39;;;;;;;15.55;5.97;;;19.20;99.90;;;;;;4968813;28;20050;-72
2023/06/07 11:16:28;;;;;;;13.18;4.88;;;19.10;99.90;;;;;;4958874;28;20491;-72
2023/06/07 11:18:55;;;;;;;14.60;5.07;;;;;;;;;;4955028;28;20494;-72
2023/06/07 11:21:21;;;;;;;9.55;4.40;;;;;;;;;;4964424;28;20136;-71
2023/06/07 11:24:12;;;;;;;16.73;5.00;;;18.60;99.90;;;;;;4957622;28;20055;-72
2023/06/07 11:26:38;;;;;;;15.27;4.80;;;19.20;99.90;;;;;;4970704;28;20046;-72
2023/06/07 11:29:05;;;;;;;15.80;4.70;;;18.70;99.90;;;;;;4976597;28;20117;-72
2023/06/07 11:31:31;;;;;;;18.45;4.80;;;;;;;;;;4975387;28;20042;-72
2023/06/07 11:33:57;;;;;;;13.32;5.15;;;;;;;;;;4975113;28;20051;-72
2023/06/07 11:36:23;;;;;;;14.05;4.80;;;18.80;99.90;;;;;;4974894;28;20138;-72
2023/06/07 11:38:50;;;;;;;18.98;5.70;;;;;;;;;;4975196;28;20051;-72
2023/06/07 11:41:16;;;;;;;15.60;5.78;;;19.00;99.90;;;;;;4958829;28;20043;-72
2023/06/07 11:43:42;;;;;;;14.27;5.30;;;;;;;;;;4990966;28;20290;-72
2023/06/07 11:46:12;;;;;;;13.68;5.20;;;18.70;99.90;;;;;;4974929;28;20047;-72
2023/06/07 11:48:39;;;;;;;15.35;5.47;;;;;;;;;;4975032;28;20050;-72
2023/06/07 11:51:05;;;;;;;17.15;5.35;;;19.10;99.90;;;;;;4974965;28;20038;-72
2023/06/07 11:53:31;;;;;;;16.67;5.85;;;;;;;;;;4974793;28;20494;-72
2023/06/07 11:55:58;;;;;;;17.10;5.38;;;18.60;99.90;;;;;;4981262;28;20051;-72
2023/06/07 11:58:25;;;;;;;13.77;5.40;;;;;;;;;;4958683;28;20039;-72
2023/06/07 12:00:52;;;;;;;18.63;5.72;;;17.50;99.90;;;;;;4955325;28;20039;-72
2023/06/07 12:03:20;;;;;;;13.52;5.53;;;17.70;99.90;;;;;;4955649;28;20042;-71
2023/06/07 12:05:47;;;;;;;14.38;5.65;;;17.60;99.90;;;;;;4974409;28;20039;-71
2023/06/07 12:08:16;;;;;;;12.30;4.80;;;18.60;99.90;;;;;;4939613;29;20151;-71
2023/06/07 12:10:43;;;;;;;16.83;4.75;;;;;;;;;;4960777;28;20141;-71
2023/06/07 12:13:18;;;;;;;14.95;5.18;;;18.00;99.90;;;;;;4974416;28;20109;-69
2023/06/07 12:15:46;;;;;;;14.55;4.90;;;18.80;99.90;;;;;;4974447;28;20057;-71
2023/06/07 12:18:17;;;;;;;14.00;3.97;;;19.00;99.90;;;;;;4974306;28;20133;-70
2023/06/07 12:20:44;;;;;;;11.95;4.10;;;18.90;99.90;;;;;;4958509;28;20499;-69
2023/06/07 12:23:11;;;;;;;13.00;5.00;;;19.20;99.90;;;;;;4973332;28;20078;-70
2023/06/07 12:25:39;;;;;;;10.98;4.63;;;;;;;;;;4974109;28;20043;-69
2023/06/07 12:28:13;;;;;;;12.75;4.07;;;19.00;99.90;;;;;;4975274;28;20066;-69
2023/06/07 12:30:41;;;;;;;16.02;4.57;;;19.10;99.90;;;;;;4975446;28;20050;-69
2023/06/07 12:33:15;;;;;;;15.23;3.90;;;19.30;99.90;;;;;;4973937;28;20090;-69
2023/06/07 12:35:46;;;;;;;14.30;4.40;;;18.30;99.90;;;;;;4958320;28;20038;-70
2023/06/07 12:38:13;;;;;;;11.65;4.18;;;18.30;99.90;;;;;;4974104;28;20161;-69
2023/06/07 12:40:39;;;;;;;12.82;4.63;;;;;;;;;;4974216;28;20325;-69
2023/06/07 12:43:06;;;;;;;13.50;4.55;;;;;;;;;;4973724;28;20070;-69
2023/06/07 12:45:32;;;;;;;13.18;4.60;;;19.30;99.90;;;;;;4973710;28;20051;-69
2023/06/07 12:47:58;;;;;;;16.77;4.75;;;18.40;99.90;;;;;;4958088;28;20139;-68
2023/06/07 12:50:24;;;;;;;11.85;5.20;;;;;;;;;;4974022;28;20075;-69
2023/06/07 12:52:50;;;;;;;16.73;5.53;;;18.30;99.90;;;;;;4973694;28;20046;-69
2023/06/07 12:55:17;;;;;;;9.75;4.60;;;19.90;99.90;;;;;;4957879;28;20394;-68
2023/06/07 12:57:43;;;;;;;13.68;4.68;;;19.10;99.90;;;;;;4973677;28;20045;-68
2023/06/07 13:00:09;;;;;;;14.07;4.57;;;19.80;99.90;;;;;;4973556;28;20038;-69
2023/06/07 13:02:36;;;;;;;12.02;4.88;;;;;;;;;;4973492;28;20038;-68
2023/06/07 13:05:02;;;;;;;14.35;4.53;;;18.30;99.90;;;;;;4973455;28;20042;-69
2023/06/07 13:07:28;;;;;;;14.68;4.88;;;;;;;;;;4973213;28;20089;-69
2023/06/07 13:09:53;;;;;;;19.50;5.60;;;20.10;99.90;;;;;;4973512;28;20100;-68
2023/06/07 13:12:20;;;;;;;16.58;5.30;;;19.60;99.90;;;;;;4973294;28;20042;-68
2023/06/07 13:14:46;;;;;;;18.60;5.97;;;;;;;;;;4957229;28;20043;-69
2023/06/07 13:17:12;;;;;;;13.63;5.40;;;20.00;99.90;;;;;;4973152;28;20074;-74
2023/06/07 13:19:38;;;;;;;16.25;5.50;;;19.60;99.90;;;;;;4973270;28;20098;-70
2023/06/07 13:22:05;;;;;;;16.58;5.22;;;20.10;99.90;;;;;;4973259;28;20042;-71
2023/06/07 13:24:32;;;;;;;15.70;5.35;;;18.50;99.90;;;;;;4956655;28;20046;-69
2023/06/07 13:26:58;;;;;;;14.27;4.97;;;;;;;;;;4941411;28;20101;-68
2023/06/07 13:29:24;;;;;;;10.63;4.90;;;;;;;;;;4956999;28;20479;-69
2023/06/07 13:31:50;;;;;;;13.57;4.90;;;;;;;;;;4941196;28;20038;-69
2023/06/07 13:34:16;;;;;;;12.65;4.80;;;19.80;99.90;;;;;;4957024;28;20094;-69
2023/06/07 13:36:43;;;;;;;16.42;4.32;;;18.90;99.90;;;;;;4957097;28;20043;-70
2023/06/07 13:39:09;;;;;;;14.82;4.90;;;;;;;;;;4972850;28;20046;-71
2023/06/07 13:41:38;;;;;;;11.63;4.78;;;;;;;;;;4973092;28;20558;-72
2023/06/07 13:44:04;;;;;;;13.90;5.00;;;20.60;99.90;;;;;;4956405;28;20130;-71
2023/06/07 13:46:30;;;;;;;15.50;5.25;;;;;;;;;;4972830;28;20130;-72
2023/06/07 13:48:55;;;;;;;18.27;5.65;;;20.10;99.90;;;;;;4973161;28;20125;-72
2023/06/07 13:51:23;;;;;;;17.77;5.68;;;;;;;;;;4973058;28;20535;-72